sensor_id;sensor_type;location;lat;lon;timestamp;pressure;altitude;pressure_sealevel;temperature;humidity
15007;BME280;7599;50.748;13.142;2024-02-14T00:00:23;96015.28;;;11.22;71.29
15007;BME280;7599;50.748;13.142;2024-02-14T00:03:27;96014.34;;;11.18;71.38
15007;BME280;7599;50.748;13.142;2024-02-14T00:06:34;96016.75;;;11.20;71.41
15007;BME280;7599;50.748;13.142;2024-02-14T00:09:38;96018.47;;;11.16;71.43
15007;BME280;7599;50.748;13.142;2024-02-14T00:12:41;96026.72;;;11.19;71.66
15007;BME280;7599;50.748;13.142;2024-02-14T00:15:46;96011.34;;;11.20;71.38
15007;BME280;7599;50.748;13.142;2024-02-14T00:18:50;96017.03;;;11.18;71.08
15007;BME280;7599;50.748;13.142;2024-02-14T00:21:52;96007.38;;;11.17;71.73
15007;BME280;7599;50.748;13.142;2024-02-14T00:24:57;96014.84;;;11.20;71.22
15007;BME280;7599;50.748;13.142;2024-02-14T00:28:01;96012.94;;;11.21;71.61
15007;BME280;7599;50.748;13.142;2024-02-14T00:31:08;96003.28;;;11.20;71.40
15007;BME280;7599;50.748;13.142;2024-02-14T00:34:10;96001.22;;;11.17;71.72
15007;BME280;7599;50.748;13.142;2024-02-14T00:37:14;96006.94;;;11.15;71.39
15007;BME280;7599;50.748;13.142;2024-02-14T00:40:19;95995.66;;;11.13;71.05
15007;BME280;7599;50.748;13.142;2024-02-14T00:43:21;96004.53;;;11.14;71.06
15007;BME280;7599;50.748;13.142;2024-02-14T00:46:25;95996.47;;;11.14;71.14
15007;BME280;7599;50.748;13.142;2024-02-14T00:49:28;96011.34;;;11.20;71.27
15007;BME280;7599;50.748;13.142;2024-02-14T00:52:32;96011.81;;;11.13;71.37
15007;BME280;7599;50.748;13.142;2024-02-14T00:55:36;96015.28;;;11.14;71.51
15007;BME280;7599;50.748;13.142;2024-02-14T00:58:39;96016.56;;;11.16;71.59
15007;BME280;7599;50.748;13.142;2024-02-14T01:01:42;96011.50;;;11.15;71.04
15007;BME280;7599;50.748;13.142;2024-02-14T01:04:46;96018.63;;;11.19;71.07
15007;BME280;7599;50.748;13.142;2024-02-14T01:07:49;96024.31;;;11.18;71.31
15007;BME280;7599;50.748;13.142;2024-02-14T01:14:21;96012.31;;;11.15;71.39
15007;BME280;7599;50.748;13.142;2024-02-14T01:17:33;96009.13;;;11.13;71.15
15007;BME280;7599;50.748;13.142;2024-02-14T01:20:51;96003.75;;;11.13;71.39
15007;BME280;7599;50.748;13.142;2024-02-14T01:23:54;96012.31;;;11.15;71.54
15007;BME280;7599;50.748;13.142;2024-02-14T01:26:57;95996.44;;;11.05;71.63
15007;BME280;7599;50.748;13.142;2024-02-14T01:30:17;96013.88;;;11.16;71.07
15007;BME280;7599;50.748;13.142;2024-02-14T01:33:31;96006.75;;;11.12;71.31
15007;BME280;7599;50.748;13.142;2024-02-14T01:36:50;96013.09;;;11.16;71.54
15007;BME280;7599;50.748;13.142;2024-02-14T01:40:31;96028.44;;;11.15;71.45
15007;BME280;7599;50.748;13.142;2024-02-14T01:43:34;96015.63;;;11.12;71.21
15007;BME280;7599;50.748;13.142;2024-02-14T01:46:43;96007.72;;;11.16;71.13
15007;BME280;7599;50.748;13.142;2024-02-14T01:49:46;96009.91;;;11.14;71.20
15007;BME280;7599;50.748;13.142;2024-02-14T01:52:49;96000.09;;;11.09;71.24
15007;BME280;7599;50.748;13.142;2024-02-14T01:55:52;96001.84;;;11.14;71.49
15007;BME280;7599;50.748;13.142;2024-02-14T01:58:55;95993.47;;;11.06;71.24
15007;BME280;7599;50.748;13.142;2024-02-14T02:01:59;96018.63;;;11.11;71.13
15007;BME280;7599;50.748;13.142;2024-02-14T02:05:02;96018.31;;;11.12;71.70
15007;BME280;7599;50.748;13.142;2024-02-14T02:08:07;96019.41;;;11.11;71.60
15007;BME280;7599;50.748;13.142;2024-02-14T02:11:12;96005.97;;;11.11;71.35
15007;BME280;7599;50.748;13.142;2024-02-14T02:14:15;95999.16;;;11.14;71.33
15007;BME280;7599;50.748;13.142;2024-02-14T02:17:20;96000.41;;;11.07;71.48
15007;BME280;7599;50.748;13.142;2024-02-14T02:20:23;95997.25;;;11.05;71.37
15007;BME280;7599;50.748;13.142;2024-02-14T02:23:27;95998.69;;;11.12;71.58
15007;BME280;7599;50.748;13.142;2024-02-14T02:26:31;95986.97;;;11.07;71.64
15007;BME280;7599;50.748;13.142;2024-02-14T02:29:34;95992.53;;;11.11;71.62
15007;BME280;7599;50.748;13.142;2024-02-14T02:32:39;95989.34;;;11.09;71.28
15007;BME280;7599;50.748;13.142;2024-02-14T02:35:42;95980.81;;;11.07;71.33
15007;BME280;7599;50.748;13.142;2024-02-14T02:38:48;95985.56;;;11.10;71.63
15007;BME280;7599;50.748;13.142;2024-02-14T02:41:51;95987.28;;;11.06;71.61
15007;BME280;7599;50.748;13.142;2024-02-14T02:44:57;95986.66;;;11.09;71.07
15007;BME280;7599;50.748;13.142;2024-02-14T02:48:14;95986.19;;;11.07;71.43
15007;BME280;7599;50.748;13.142;2024-02-14T02:51:31;95982.72;;;11.06;71.41
15007;BME280;7599;50.748;13.142;2024-02-14T02:54:36;95988.53;;;11.08;71.29
15007;BME280;7599;50.748;13.142;2024-02-14T02:57:43;95988.25;;;11.10;71.64
15007;BME280;7599;50.748;13.142;2024-02-14T03:00:48;95977.16;;;11.03;71.17
15007;BME280;7599;50.748;13.142;2024-02-14T03:03:52;95972.75;;;11.07;71.18
15007;BME280;7599;50.748;13.142;2024-02-14T03:07:07;95973.19;;;11.09;71.10
15007;BME280;7599;50.748;13.142;2024-02-14T03:10:26;95972.56;;;11.03;71.45
15007;BME280;7599;50.748;13.142;2024-02-14T03:13:36;95963.09;;;11.06;71.39
15007;BME280;7599;50.748;13.142;2024-02-14T03:16:50;95972.25;;;11.05;71.30
15007;BME280;7599;50.748;13.142;2024-02-14T03:20:06;95968.16;;;11.07;71.29
15007;BME280;7599;50.748;13.142;2024-02-14T03:23:18;95963.22;;;11.01;71.13
15007;BME280;7599;50.748;13.142;2024-02-14T03:26:28;95969.25;;;11.06;71.28
15007;BME280;7599;50.748;13.142;2024-02-14T03:29:31;95965.28;;;11.04;71.51
15007;BME280;7599;50.748;13.142;2024-02-14T03:32:34;95968.75;;;11.04;71.48
15007;BME280;7599;50.748;13.142;2024-02-14T03:35:37;95960.69;;;11.04;71.52
15007;BME280;7599;50.748;13.142;2024-02-14T03:38:43;95955.16;;;11.01;71.32
15007;BME280;7599;50.748;13.142;2024-02-14T03:41:49;95952.16;;;11.02;71.04
15007;BME280;7599;50.748;13.142;2024-02-14T03:45:04;95954.69;;;10.99;71.34
15007;BME280;7599;50.748;13.142;2024-02-14T03:48:09;95958.66;;;11.01;71.19
15007;BME280;7599;50.748;13.142;2024-02-14T03:51:13;95956.44;;;11.03;71.20
15007;BME280;7599;50.748;13.142;2024-02-14T03:54:15;95949.78;;;11.01;71.34
15007;BME280;7599;50.748;13.142;2024-02-14T03:57:23;95943.59;;;11.00;71.13
15007;BME280;7599;50.748;13.142;2024-02-14T04:00:34;95946.00;;;11.02;71.55
15007;BME280;7599;50.748;13.142;2024-02-14T04:03:37;95951.38;;;11.02;71.25
15007;BME280;7599;50.748;13.142;2024-02-14T04:06:40;95950.28;;;11.03;71.15
15007;BME280;7599;50.748;13.142;2024-02-14T04:09:44;95943.94;;;10.99;70.96
15007;BME280;7599;50.748;13.142;2024-02-14T04:12:51;95948.81;;;11.05;71.24
15007;BME280;7599;50.748;13.142;2024-02-14T04:15:53;95950.88;;;11.00;71.45
15007;BME280;7599;50.748;13.142;2024-02-14T04:18:56;95952.16;;;11.02;71.47
15007;BME280;7599;50.748;13.142;2024-02-14T04:21:59;95949.47;;;11.02;71.64
15007;BME280;7599;50.748;13.142;2024-02-14T04:25:03;95945.22;;;11.01;71.09
15007;BME280;7599;50.748;13.142;2024-02-14T04:28:08;95949.47;;;11.02;71.39
15007;BME280;7599;50.748;13.142;2024-02-14T04:31:13;95955.66;;;11.03;71.26
15007;BME280;7599;50.748;13.142;2024-02-14T04:34:18;95953.41;;;11.05;71.36
15007;BME280;7599;50.748;13.142;2024-02-14T04:37:23;95957.22;;;11.04;70.87
15007;BME280;7599;50.748;13.142;2024-02-14T04:40:25;95951.22;;;11.07;71.31
15007;BME280;7599;50.748;13.142;2024-02-14T04:43:31;95947.91;;;11.01;71.47
15007;BME280;7599;50.748;13.142;2024-02-14T04:46:34;95949.00;;;11.00;71.15
15007;BME280;7599;50.748;13.142;2024-02-14T04:49:39;95944.88;;;11.03;71.61
15007;BME280;7599;50.748;13.142;2024-02-14T04:52:42;95946.13;;;11.05;70.87
15007;BME280;7599;50.748;13.142;2024-02-14T04:55:46;95948.03;;;11.05;71.02
15007;BME280;7599;50.748;13.142;2024-02-14T04:58:53;95952.00;;;11.07;71.20
15007;BME280;7599;50.748;13.142;2024-02-14T05:01:57;95949.78;;;11.10;71.44
15007;BME280;7599;50.748;13.142;2024-02-14T05:05:03;95946.31;;;11.09;71.00
15007;BME280;7599;50.748;13.142;2024-02-14T05:11:28;95937.59;;;11.03;71.12
15007;BME280;7599;50.748;13.142;2024-02-14T05:14:38;95932.41;;;11.07;70.89
15007;BME280;7599;50.748;13.142;2024-02-14T05:17:57;95947.91;;;11.10;71.06
15007;BME280;7599;50.748;13.142;2024-02-14T05:20:59;95942.81;;;11.08;70.94
15007;BME280;7599;50.748;13.142;2024-02-14T05:24:03;95935.25;;;11.11;71.12
15007;BME280;7599;50.748;13.142;2024-02-14T05:27:09;95934.75;;;11.08;71.07
15007;BME280;7599;50.748;13.142;2024-02-14T05:30:14;95913.41;;;11.03;70.87
15007;BME280;7599;50.748;13.142;2024-02-14T05:33:20;95921.47;;;11.03;71.30
15007;BME280;7599;50.748;13.142;2024-02-14T05:36:24;95918.31;;;11.01;71.28
15007;BME280;7599;50.748;13.142;2024-02-14T05:39:26;95921.81;;;11.11;71.33
15007;BME280;7599;50.748;13.142;2024-02-14T05:42:29;95919.25;;;11.05;70.77
15007;BME280;7599;50.748;13.142;2024-02-14T05:45:33;95909.59;;;11.04;71.26
15007;BME280;7599;50.748;13.142;2024-02-14T05:48:38;95909.44;;;11.10;71.22
15007;BME280;7599;50.748;13.142;2024-02-14T05:51:43;95909.94;;;11.03;70.77
15007;BME280;7599;50.748;13.142;2024-02-14T05:54:47;95921.31;;;11.08;71.29
15007;BME280;7599;50.748;13.142;2024-02-14T05:57:50;95910.38;;;11.05;70.77
15007;BME280;7599;50.748;13.142;2024-02-14T06:00:55;95920.53;;;11.08;70.98
15007;BME280;7599;50.748;13.142;2024-02-14T06:03:58;95926.69;;;11.08;70.83
15007;BME280;7599;50.748;13.142;2024-02-14T06:07:03;95913.41;;;11.03;70.90
15007;BME280;7599;50.748;13.142;2024-02-14T06:10:09;95929.72;;;11.07;71.51
15007;BME280;7599;50.748;13.142;2024-02-14T06:13:11;95931.13;;;11.04;71.62
15007;BME280;7599;50.748;13.142;2024-02-14T06:16:16;95930.81;;;11.06;71.42
15007;BME280;7599;50.748;13.142;2024-02-14T06:19:22;95935.72;;;11.04;71.36
15007;BME280;7599;50.748;13.142;2024-02-14T06:22:31;95929.53;;;11.03;71.37
15007;BME280;7599;50.748;13.142;2024-02-14T06:25:51;95928.75;;;11.03;71.48
15007;BME280;7599;50.748;13.142;2024-02-14T06:28:56;95923.84;;;11.05;72.11
15007;BME280;7599;50.748;13.142;2024-02-14T06:32:21;95921.81;;;11.02;71.91
15007;BME280;7599;50.748;13.142;2024-02-14T06:35:24;95922.75;;;11.06;71.70
15007;BME280;7599;50.748;13.142;2024-02-14T06:38:30;95914.53;;;11.02;71.21
15007;BME280;7599;50.748;13.142;2024-02-14T06:41:39;95919.09;;;11.02;71.50
15007;BME280;7599;50.748;13.142;2024-02-14T06:44:49;95931.13;;;11.04;71.95
15007;BME280;7599;50.748;13.142;2024-02-14T06:47:59;95925.75;;;11.04;71.95
15007;BME280;7599;50.748;13.142;2024-02-14T06:51:05;95905.97;;;11.00;71.34
15007;BME280;7599;50.748;13.142;2024-02-14T06:54:09;95907.88;;;11.00;71.31
15007;BME280;7599;50.748;13.142;2024-02-14T06:57:17;95908.66;;;11.00;72.01
15007;BME280;7599;50.748;13.142;2024-02-14T07:00:23;95908.81;;;11.04;71.56
15007;BME280;7599;50.748;13.142;2024-02-14T07:03:36;95906.28;;;10.99;71.89
15007;BME280;7599;50.748;13.142;2024-02-14T07:06:51;95918.16;;;11.06;71.68
15007;BME280;7599;50.748;13.142;2024-02-14T07:10:04;95917.66;;;11.04;71.46
15007;BME280;7599;50.748;13.142;2024-02-14T07:13:23;95919.56;;;11.04;71.48
15007;BME280;7599;50.748;13.142;2024-02-14T07:16:53;95919.56;;;11.04;71.46
15007;BME280;7599;50.748;13.142;2024-02-14T07:20:11;95911.50;;;11.04;71.70
15007;BME280;7599;50.748;13.142;2024-02-14T07:23:17;95917.22;;;11.02;71.47
15007;BME280;7599;50.748;13.142;2024-02-14T07:26:36;95907.06;;;10.99;72.00
15007;BME280;7599;50.748;13.142;2024-02-14T07:29:52;95908.66;;;11.00;72.04
15007;BME280;7599;50.748;13.142;2024-02-14T07:32:56;95907.06;;;10.99;71.74
15007;BME280;7599;50.748;13.142;2024-02-14T07:36:32;95893.63;;;10.99;72.18
15007;BME280;7599;50.748;13.142;2024-02-14T07:39:52;95893.16;;;10.97;72.00
15007;BME280;7599;50.748;13.142;2024-02-14T07:43:18;95885.56;;;10.99;71.88
15007;BME280;7599;50.748;13.142;2024-02-14T07:46:35;95893.97;;;10.98;71.77
15007;BME280;7599;50.748;13.142;2024-02-14T07:49:40;95893.63;;;10.99;71.96
15007;BME280;7599;50.748;13.142;2024-02-14T07:52:47;95884.00;;;10.98;71.42
15007;BME280;7599;50.748;13.142;2024-02-14T07:55:53;95881.91;;;10.95;71.36
15007;BME280;7599;50.748;13.142;2024-02-14T07:59:01;95883.19;;;10.98;71.59
15007;BME280;7599;50.748;13.142;2024-02-14T08:02:13;95884.00;;;10.98;71.80
15007;BME280;7599;50.748;13.142;2024-02-14T08:05:21;95878.13;;;10.96;71.85
15007;BME280;7599;50.748;13.142;2024-02-14T08:08:29;95865.00;;;10.95;71.79
15007;BME280;7599;50.748;13.142;2024-02-14T08:11:33;95867.69;;;10.86;71.72
15007;BME280;7599;50.748;13.142;2024-02-14T08:14:35;95884.16;;;10.93;71.54
15007;BME280;7599;50.748;13.142;2024-02-14T08:17:38;95885.41;;;10.96;72.07
15007;BME280;7599;50.748;13.142;2024-02-14T08:20:46;95897.44;;;10.98;72.02
15007;BME280;7599;50.748;13.142;2024-02-14T08:23:54;95881.13;;;10.95;71.94
15007;BME280;7599;50.748;13.142;2024-02-14T08:26:58;95890.78;;;10.96;72.06
15007;BME280;7599;50.748;13.142;2024-02-14T08:30:00;95890.78;;;10.96;71.57
15007;BME280;7599;50.748;13.142;2024-02-14T08:33:13;95892.50;;;11.00;71.99
15007;BME280;7599;50.748;13.142;2024-02-14T08:36:17;95896.94;;;10.96;72.10
15007;BME280;7599;50.748;13.142;2024-02-14T08:39:22;95909.59;;;10.96;72.25
15007;BME280;7599;50.748;13.142;2024-02-14T08:42:25;95882.25;;;10.94;72.28
15007;BME280;7599;50.748;13.142;2024-02-14T08:45:28;95883.38;;;10.93;72.24
15007;BME280;7599;50.748;13.142;2024-02-14T08:48:31;95893.78;;;10.94;72.11
15007;BME280;7599;50.748;13.142;2024-02-14T08:51:37;95891.72;;;10.91;72.29
15007;BME280;7599;50.748;13.142;2024-02-14T08:54:42;95892.84;;;10.90;72.07
15007;BME280;7599;50.748;13.142;2024-02-14T08:57:56;95891.91;;;10.95;72.42
15007;BME280;7599;50.748;13.142;2024-02-14T09:01:17;95892.69;;;10.95;72.42
15007;BME280;7599;50.748;13.142;2024-02-14T09:04:27;95885.25;;;10.92;71.79
15007;BME280;7599;50.748;13.142;2024-02-14T09:07:48;95891.72;;;10.91;71.85
15007;BME280;7599;50.748;13.142;2024-02-14T09:11:26;95895.03;;;10.97;71.97
15007;BME280;7599;50.748;13.142;2024-02-14T09:14:30;95890.78;;;10.96;72.41
15007;BME280;7599;50.748;13.142;2024-02-14T09:17:37;95888.88;;;10.96;71.95
15007;BME280;7599;50.748;13.142;2024-02-14T09:25:11;95896.31;;;10.99;71.89
15007;BME280;7599;50.748;13.142;2024-02-14T09:28:26;95890.78;;;10.96;72.53
15007;BME280;7599;50.748;13.142;2024-02-14T09:31:39;95898.56;;;10.97;72.42
15007;BME280;7599;50.748;13.142;2024-02-14T09:34:57;95908.50;;;10.97;72.58
15007;BME280;7599;50.748;13.142;2024-02-14T09:37:59;95894.91;;;10.93;72.26
15007;BME280;7599;50.748;13.142;2024-02-14T09:41:06;95891.44;;;10.93;72.48
15007;BME280;7599;50.748;13.142;2024-02-14T09:44:15;95901.06;;;10.94;72.29
15007;BME280;7599;50.748;13.142;2024-02-14T09:47:19;95914.53;;;10.94;72.65
15007;BME280;7599;50.748;13.142;2024-02-14T09:50:26;95924.16;;;10.95;72.32
15007;BME280;7599;50.748;13.142;2024-02-14T09:53:32;95913.72;;;10.93;72.20
15007;BME280;7599;50.748;13.142;2024-02-14T09:56:38;95922.09;;;10.92;72.59
15007;BME280;7599;50.748;13.142;2024-02-14T09:59:43;95923.53;;;10.89;72.38
15007;BME280;7599;50.748;13.142;2024-02-14T10:02:49;95935.25;;;10.93;72.30
15007;BME280;7599;50.748;13.142;2024-02-14T10:05:54;95914.97;;;10.87;72.37
15007;BME280;7599;50.748;13.142;2024-02-14T10:08:59;95930.94;;;10.92;72.46
15007;BME280;7599;50.748;13.142;2024-02-14T10:12:06;95931.91;;;10.96;72.33
15007;BME280;7599;50.748;13.142;2024-02-14T10:15:15;95935.25;;;10.93;72.12
15007;BME280;7599;50.748;13.142;2024-02-14T10:18:51;95934.91;;;10.95;72.41
15007;BME280;7599;50.748;13.142;2024-02-14T10:21:57;95937.44;;;10.91;72.31
15007;BME280;7599;50.748;13.142;2024-02-14T10:25:02;95935.25;;;10.93;72.08
15007;BME280;7599;50.748;13.142;2024-02-14T10:28:11;95934.75;;;10.91;72.17
15007;BME280;7599;50.748;13.142;2024-02-14T10:31:23;95935.38;;;10.97;72.16
15007;BME280;7599;50.748;13.142;2024-02-14T10:34:33;95934.28;;;10.98;71.99
15007;BME280;7599;50.748;13.142;2024-02-14T10:37:36;95921.63;;;10.90;71.91
15007;BME280;7599;50.748;13.142;2024-02-14T10:40:39;95918.16;;;10.89;72.47
15007;BME280;7599;50.748;13.142;2024-02-14T10:43:44;95924.47;;;10.93;72.26
15007;BME280;7599;50.748;13.142;2024-02-14T10:46:51;95931.28;;;10.99;72.28
15007;BME280;7599;50.748;13.142;2024-02-14T10:49:56;95913.72;;;10.93;72.58
15007;BME280;7599;50.748;13.142;2024-02-14T10:53:00;95916.09;;;10.95;72.59
15007;BME280;7599;50.748;13.142;2024-02-14T10:56:07;95916.88;;;10.95;72.02
15007;BME280;7599;50.748;13.142;2024-02-14T10:59:15;95922.41;;;10.99;72.43
15007;BME280;7599;50.748;13.142;2024-02-14T11:07:35;95917.38;;;10.97;72.23
15007;BME280;7599;50.748;13.142;2024-02-14T11:10:54;95919.56;;;10.95;72.67
15007;BME280;7599;50.748;13.142;2024-02-14T11:14:17;95915.31;;;10.94;72.58
15007;BME280;7599;50.748;13.142;2024-02-14T11:17:36;95917.38;;;10.97;72.51
15007;BME280;7599;50.748;13.142;2024-02-14T11:20:54;95899.16;;;10.94;72.90
15007;BME280;7599;50.748;13.142;2024-02-14T11:28:36;95911.19;;;10.97;72.68
15007;BME280;7599;50.748;13.142;2024-02-14T11:32:02;95905.78;;;10.97;72.72
15007;BME280;7599;50.748;13.142;2024-02-14T11:35:26;95923.84;;;10.96;72.60
15007;BME280;7599;50.748;13.142;2024-02-14T11:39:03;95919.91;;;10.94;72.85
15007;BME280;7599;50.748;13.142;2024-02-14T11:43:11;95911.50;;;10.95;73.03
15007;BME280;7599;50.748;13.142;2024-02-14T11:46:35;95904.72;;;10.89;72.77
15007;BME280;7599;50.748;13.142;2024-02-14T11:49:51;95909.75;;;10.91;73.06
15007;BME280;7599;50.748;13.142;2024-02-14T11:52:55;95912.13;;;10.92;72.74
15007;BME280;7599;50.748;13.142;2024-02-14T11:55:59;95911.81;;;10.94;72.68
15007;BME280;7599;50.748;13.142;2024-02-14T11:59:52;95906.91;;;10.96;72.57
15007;BME280;7599;50.748;13.142;2024-02-14T12:03:17;95910.88;;;10.90;72.90
15007;BME280;7599;50.748;13.142;2024-02-14T12:06:28;95911.81;;;10.94;72.59
15007;BME280;7599;50.748;13.142;2024-02-14T12:09:45;95916.88;;;10.95;72.52
15007;BME280;7599;50.748;13.142;2024-02-14T12:12:52;95907.88;;;10.91;72.94
15007;BME280;7599;50.748;13.142;2024-02-14T12:15:58;95913.72;;;10.93;73.05
15007;BME280;7599;50.748;13.142;2024-02-14T12:19:17;95896.16;;;10.87;73.05
15007;BME280;7599;50.748;13.142;2024-02-14T12:22:40;95907.25;;;10.94;72.77
15007;BME280;7599;50.748;13.142;2024-02-14T12:25:44;95907.88;;;10.91;73.17
15007;BME280;7599;50.748;13.142;2024-02-14T12:29:01;95907.06;;;10.91;73.57
15007;BME280;7599;50.748;13.142;2024-02-14T12:32:16;95909.59;;;10.96;73.11
15007;BME280;7599;50.748;13.142;2024-02-14T12:35:30;95913.41;;;10.95;73.24
15007;BME280;7599;50.748;13.142;2024-02-14T12:38:34;95915.75;;;10.96;73.06
15007;BME280;7599;50.748;13.142;2024-02-14T12:41:37;95918.44;;;10.96;73.36
15007;BME280;7599;50.748;13.142;2024-02-14T12:44:42;95913.72;;;10.93;73.14
15007;BME280;7599;50.748;13.142;2024-02-14T12:47:44;95910.25;;;10.93;72.93
15007;BME280;7599;50.748;13.142;2024-02-14T12:50:52;95917.50;;;10.92;73.21
15007;BME280;7599;50.748;13.142;2024-02-14T12:54:01;95905.50;;;10.90;73.32
15007;BME280;7599;50.748;13.142;2024-02-14T13:42:04;95932.06;;;10.91;73.61
15007;BME280;7599;50.748;13.142;2024-02-14T13:45:40;95941.06;;;10.95;73.54
15007;BME280;7599;50.748;13.142;2024-02-14T13:48:43;95940.75;;;10.97;73.73
15007;BME280;7599;50.748;13.142;2024-02-14T13:51:51;95946.00;;;10.93;73.33
15007;BME280;7599;50.748;13.142;2024-02-14T13:55:08;95946.78;;;10.94;73.05
15007;BME280;7599;50.748;13.142;2024-02-14T13:58:12;95950.25;;;10.94;73.17
15007;BME280;7599;50.748;13.142;2024-02-14T14:01:34;95959.28;;;10.98;73.22
15007;BME280;7599;50.748;13.142;2024-02-14T14:04:52;95959.91;;;10.95;73.68
15007;BME280;7599;50.748;13.142;2024-02-14T14:07:57;95965.44;;;10.99;73.06
15007;BME280;7599;50.748;13.142;2024-02-14T14:11:02;95961.63;;;10.91;73.45
15007;BME280;7599;50.748;13.142;2024-02-14T14:14:11;95970.50;;;10.92;73.18
15007;BME280;7599;50.748;13.142;2024-02-14T14:17:29;95963.72;;;10.94;73.54
15007;BME280;7599;50.748;13.142;2024-02-14T14:20:36;95967.19;;;10.95;73.36
15007;BME280;7599;50.748;13.142;2024-02-14T14:23:48;95977.47;;;10.93;73.14
15007;BME280;7599;50.748;13.142;2024-02-14T14:26:54;95973.66;;;10.94;73.28
15007;BME280;7599;50.748;13.142;2024-02-14T14:30:09;95973.97;;;10.92;73.13
15007;BME280;7599;50.748;13.142;2024-02-14T14:33:15;95986.31;;;10.93;73.28
15007;BME280;7599;50.748;13.142;2024-02-14T14:36:23;95979.84;;;10.94;73.12
15007;BME280;7599;50.748;13.142;2024-02-14T14:39:35;95985.22;;;10.94;73.23
15007;BME280;7599;50.748;13.142;2024-02-14T14:42:48;95996.13;;;10.98;73.21
15007;BME280;7599;50.748;13.142;2024-02-14T14:46:10;95999.63;;;10.98;73.70
15007;BME280;7599;50.748;13.142;2024-02-14T14:49:13;95991.22;;;10.91;73.46
15007;BME280;7599;50.748;13.142;2024-02-14T14:52:37;95995.66;;;10.96;73.81
15007;BME280;7599;50.748;13.142;2024-02-14T14:56:01;96000.41;;;10.99;73.52
15007;BME280;7599;50.748;13.142;2024-02-14T14:59:22;96003.09;;;10.99;73.34
15007;BME280;7599;50.748;13.142;2024-02-14T15:02:33;95991.72;;;10.93;73.40
15007;BME280;7599;50.748;13.142;2024-02-14T15:05:50;96001.03;;;10.96;73.57
15007;BME280;7599;50.748;13.142;2024-02-14T15:09:07;95991.38;;;10.95;73.61
15007;BME280;7599;50.748;13.142;2024-02-14T15:12:16;95990.59;;;10.94;73.53
15007;BME280;7599;50.748;13.142;2024-02-14T15:15:18;95988.06;;;10.98;73.43
15007;BME280;7599;50.748;13.142;2024-02-14T15:18:24;95991.06;;;10.96;73.70
15007;BME280;7599;50.748;13.142;2024-02-14T15:21:29;95995.34;;;10.97;73.86
15007;BME280;7599;50.748;13.142;2024-02-14T15:24:45;95990.28;;;10.96;73.36
15007;BME280;7599;50.748;13.142;2024-02-14T15:28:09;95979.06;;;10.94;73.94
15007;BME280;7599;50.748;13.142;2024-02-14T15:31:25;95986.78;;;10.95;73.79
15007;BME280;7599;50.748;13.142;2024-02-14T15:35:13;95987.28;;;10.97;73.91
15007;BME280;7599;50.748;13.142;2024-02-14T15:38:26;96005.78;;;10.99;73.74
15007;BME280;7599;50.748;13.142;2024-02-14T15:41:41;96005.78;;;10.99;73.71
15007;BME280;7599;50.748;13.142;2024-02-14T15:44:47;96011.16;;;10.99;73.96
15007;BME280;7599;50.748;13.142;2024-02-14T15:47:56;95997.69;;;10.90;73.76
15007;BME280;7599;50.748;13.142;2024-02-14T15:51:11;96005.28;;;10.97;73.81
15007;BME280;7599;50.748;13.142;2024-02-14T15:54:39;96014.19;;;10.97;73.81
15007;BME280;7599;50.748;13.142;2024-02-14T15:57:58;96002.13;;;10.95;73.43
15007;BME280;7599;50.748;13.142;2024-02-14T16:01:05;96000.25;;;10.95;73.36
15007;BME280;7599;50.748;13.142;2024-02-14T16:04:26;96003.72;;;10.96;73.64
15007;BME280;7599;50.748;13.142;2024-02-14T16:07:36;96002.59;;;10.97;73.66
15007;BME280;7599;50.748;13.142;2024-02-14T16:10:41;96015.13;;;11.01;73.85
15007;BME280;7599;50.748;13.142;2024-02-14T16:17:13;96007.97;;;10.97;73.63
15007;BME280;7599;50.748;13.142;2024-02-14T16:20:16;96022.38;;;11.01;73.89
15007;BME280;7599;50.748;13.142;2024-02-14T16:23:25;96011.59;;;10.92;73.95
15007;BME280;7599;50.748;13.142;2024-02-14T16:26:28;96004.38;;;10.93;73.83
15007;BME280;7599;50.748;13.142;2024-02-14T16:29:33;95997.88;;;10.94;73.68
15007;BME280;7599;50.748;13.142;2024-02-14T16:32:39;95994.69;;;10.92;73.74
15007;BME280;7599;50.748;13.142;2024-02-14T16:35:47;96019.22;;;10.99;73.66
15007;BME280;7599;50.748;13.142;2024-02-14T16:38:51;96014.47;;;10.96;74.01
15007;BME280;7599;50.748;13.142;2024-02-14T16:41:58;96028.09;;;10.99;73.82
15007;BME280;7599;50.748;13.142;2024-02-14T16:45:03;96030.63;;;11.04;73.63
15007;BME280;7599;50.748;13.142;2024-02-14T16:48:14;96024.94;;;10.97;73.51
15007;BME280;7599;50.748;13.142;2024-02-14T16:51:18;96025.41;;;10.99;73.85
15007;BME280;7599;50.748;13.142;2024-02-14T16:54:22;96032.34;;;11.00;73.85
15007;BME280;7599;50.748;13.142;2024-02-14T16:57:30;96039.63;;;11.00;73.65
15007;BME280;7599;50.748;13.142;2024-02-14T17:00:35;96032.69;;;10.99;73.76
15007;BME280;7599;50.748;13.142;2024-02-14T17:03:39;96038.53;;;11.01;73.37
15007;BME280;7599;50.748;13.142;2024-02-14T17:06:58;96038.69;;;11.04;74.00
15007;BME280;7599;50.748;13.142;2024-02-14T17:10:14;96034.25;;;11.00;73.55
15007;BME280;7599;50.748;13.142;2024-02-14T17:13:31;96042.81;;;11.02;73.79
15007;BME280;7599;50.748;13.142;2024-02-14T17:16:33;96044.53;;;10.98;73.82
15007;BME280;7599;50.748;13.142;2024-02-14T17:19:41;96050.88;;;11.02;73.85
15007;BME280;7599;50.748;13.142;2024-02-14T17:22:54;96051.66;;;11.02;73.79
15007;BME280;7599;50.748;13.142;2024-02-14T17:26:07;96050.09;;;11.01;73.55
15007;BME280;7599;50.748;13.142;2024-02-14T17:29:09;96042.50;;;11.03;73.93
15007;BME280;7599;50.748;13.142;2024-02-14T17:32:17;96041.22;;;11.01;73.89
15007;BME280;7599;50.748;13.142;2024-02-14T17:35:39;96052.47;;;11.03;73.52
15007;BME280;7599;50.748;13.142;2024-02-14T17:38:43;96054.81;;;11.04;73.91
15007;BME280;7599;50.748;13.142;2024-02-14T17:41:47;96045.34;;;10.98;73.85
15007;BME280;7599;50.748;13.142;2024-02-14T17:44:50;96051.66;;;11.02;73.99
15007;BME280;7599;50.748;13.142;2024-02-14T17:47:53;96065.59;;;11.04;74.11
15007;BME280;7599;50.748;13.142;2024-02-14T17:50:58;96065.28;;;11.06;73.95